Strona główna
METAR-TAF:

METAR-TAF

Lotnisko :

Chōfu, Japonia

Szerokość geograficzna: 35-40N, Długość geograficzna: 139-32E, wysokość: 41 m

Aktualna obserwacja pogody

Raport powstał 12 godziny i 19 minut temu, godzina 07:00 UTC
Wiatr 4 kt od północ, zmienny między zachodnio-północny zachód i północny wschód
Temperatura 28°C
Wilgotność 66%
Ciśnienie 1013 hPa
Widzialność 10 km lub więcej
Mało chmury na wysokości 2000 ft
Rozproszone chmury na wysokości 3000 ft
Przerywane chmury na wysokości 13000 ft

METAR: RJTF 240700Z 01004KT 290V050 9999 FEW020 SCT030 BKN130 28/21 Q1013

czas: 04:19 (19:19 UTC)


TAF: brakujący

Obserwacja i prognoza pogody dla ponad 4000 lotnisk (raport METAR i TAF).

Dostępne stacje oznaczono żółtymi i czerwonymi punktami na mapie.

Najedź kursorem aby zobaczyć nazwę stacji.

Kliknij aby zobaczyć obserwacje i prognozy pogody.

Aby zmienić mapę: kliknij na zielony przycisk z czarnym krzyżykiem, aby powiększyć; na zielony przycisk z myślnikiem, aby pomniejszyć; na zielone strzałki, aby przejść do map sąsiednich.


METAR-TAF: